sensor_id;sensor_type;location;lat;lon;timestamp;temperature;humidity
21861;DHT22;11095;48.066;8.540;2022-12-07T00:01:36;0.70;99.90
21861;DHT22;11095;48.066;8.540;2022-12-07T00:04:04;0.60;99.90
21861;DHT22;11095;48.066;8.540;2022-12-07T00:06:32;0.70;99.90
21861;DHT22;11095;48.066;8.540;2022-12-07T00:08:58;0.70;99.90
21861;DHT22;11095;48.066;8.540;2022-12-07T00:11:24;0.70;99.90
21861;DHT22;11095;48.066;8.540;2022-12-07T00:13:55;0.70;99.90
21861;DHT22;11095;48.066;8.540;2022-12-07T00:16:25;0.70;99.90
21861;DHT22;11095;48.066;8.540;2022-12-07T00:18:50;0.70;99.90
21861;DHT22;11095;48.066;8.540;2022-12-07T00:21:22;0.60;99.90
21861;DHT22;11095;48.066;8.540;2022-12-07T00:23:49;0.60;99.90
21861;DHT22;11095;48.066;8.540;2022-12-07T00:26:18;0.60;99.90
21861;DHT22;11095;48.066;8.540;2022-12-07T00:28:48;0.60;99.90
21861;DHT22;11095;48.066;8.540;2022-12-07T00:31:15;0.60;99.90
21861;DHT22;11095;48.066;8.540;2022-12-07T00:33:41;0.60;99.90
21861;DHT22;11095;48.066;8.540;2022-12-07T00:36:10;0.60;99.90
21861;DHT22;11095;48.066;8.540;2022-12-07T00:38:37;0.60;99.90
21861;DHT22;11095;48.066;8.540;2022-12-07T00:41:05;0.60;99.90
21861;DHT22;11095;48.066;8.540;2022-12-07T00:43:32;0.60;99.90
21861;DHT22;11095;48.066;8.540;2022-12-07T00:45:57;0.60;99.90
21861;DHT22;11095;48.066;8.540;2022-12-07T00:48:24;0.60;99.90
21861;DHT22;11095;48.066;8.540;2022-12-07T00:50:50;0.60;99.90
21861;DHT22;11095;48.066;8.540;2022-12-07T00:53:16;0.60;99.90
21861;DHT22;11095;48.066;8.540;2022-12-07T00:55:42;0.60;99.90
21861;DHT22;11095;48.066;8.540;2022-12-07T00:58:08;0.60;99.90
21861;DHT22;11095;48.066;8.540;2022-12-07T01:00:35;0.60;99.90
21861;DHT22;11095;48.066;8.540;2022-12-07T01:03:01;0.60;99.90
21861;DHT22;11095;48.066;8.540;2022-12-07T01:05:27;0.60;99.90
21861;DHT22;11095;48.066;8.540;2022-12-07T01:07:52;0.50;99.90
21861;DHT22;11095;48.066;8.540;2022-12-07T01:10:18;0.60;99.90
21861;DHT22;11095;48.066;8.540;2022-12-07T01:12:44;0.60;99.90
21861;DHT22;11095;48.066;8.540;2022-12-07T01:15:10;0.60;99.90
21861;DHT22;11095;48.066;8.540;2022-12-07T01:17:35;0.60;99.90
21861;DHT22;11095;48.066;8.540;2022-12-07T01:20:02;0.60;99.90
21861;DHT22;11095;48.066;8.540;2022-12-07T01:22:28;0.60;99.90
21861;DHT22;11095;48.066;8.540;2022-12-07T01:24:53;0.60;99.90
21861;DHT22;11095;48.066;8.540;2022-12-07T01:27:19;0.60;99.90
21861;DHT22;11095;48.066;8.540;2022-12-07T01:29:45;0.60;99.90
21861;DHT22;11095;48.066;8.540;2022-12-07T01:32:11;0.60;99.90
21861;DHT22;11095;48.066;8.540;2022-12-07T01:34:36;0.60;99.90
21861;DHT22;11095;48.066;8.540;2022-12-07T01:37:02;0.60;99.90
21861;DHT22;11095;48.066;8.540;2022-12-07T01:39:28;0.60;99.90
21861;DHT22;11095;48.066;8.540;2022-12-07T01:41:53;0.60;99.90
21861;DHT22;11095;48.066;8.540;2022-12-07T01:44:22;0.60;99.90
21861;DHT22;11095;48.066;8.540;2022-12-07T01:46:58;0.60;99.90
21861;DHT22;11095;48.066;8.540;2022-12-07T01:49:42;0.60;99.90
21861;DHT22;11095;48.066;8.540;2022-12-07T01:52:30;0.60;99.90
21861;DHT22;11095;48.066;8.540;2022-12-07T01:55:07;0.60;99.90
21861;DHT22;11095;48.066;8.540;2022-12-07T01:57:36;0.60;99.90
21861;DHT22;11095;48.066;8.540;2022-12-07T02:00:04;0.60;99.90
21861;DHT22;11095;48.066;8.540;2022-12-07T02:02:36;0.60;99.90
21861;DHT22;11095;48.066;8.540;2022-12-07T02:05:04;0.60;99.90
21861;DHT22;11095;48.066;8.540;2022-12-07T02:07:32;0.60;99.90
21861;DHT22;11095;48.066;8.540;2022-12-07T02:10:19;0.60;99.90
21861;DHT22;11095;48.066;8.540;2022-12-07T02:12:50;0.60;99.90
21861;DHT22;11095;48.066;8.540;2022-12-07T02:15:17;0.60;99.90
21861;DHT22;11095;48.066;8.540;2022-12-07T02:18:07;0.60;99.90
21861;DHT22;11095;48.066;8.540;2022-12-07T02:20:39;0.60;99.90
21861;DHT22;11095;48.066;8.540;2022-12-07T02:31:32;0.60;99.90
21861;DHT22;11095;48.066;8.540;2022-12-07T02:34:09;0.70;99.90
21861;DHT22;11095;48.066;8.540;2022-12-07T02:36:40;0.70;99.90
21861;DHT22;11095;48.066;8.540;2022-12-07T02:39:17;0.70;99.90
21861;DHT22;11095;48.066;8.540;2022-12-07T02:41:47;0.70;99.90
21861;DHT22;11095;48.066;8.540;2022-12-07T02:44:18;0.70;99.90
21861;DHT22;11095;48.066;8.540;2022-12-07T02:47:02;0.70;99.90
21861;DHT22;11095;48.066;8.540;2022-12-07T02:49:29;0.80;99.90
21861;DHT22;11095;48.066;8.540;2022-12-07T02:51:55;0.80;99.90
21861;DHT22;11095;48.066;8.540;2022-12-07T02:54:21;0.80;99.90
21861;DHT22;11095;48.066;8.540;2022-12-07T02:56:52;0.80;99.90
21861;DHT22;11095;48.066;8.540;2022-12-07T03:10:59;0.90;99.90
21861;DHT22;11095;48.066;8.540;2022-12-07T03:16:16;0.90;99.90
21861;DHT22;11095;48.066;8.540;2022-12-07T03:18:55;0.80;99.90
21861;DHT22;11095;48.066;8.540;2022-12-07T03:21:26;0.90;99.90
21861;DHT22;11095;48.066;8.540;2022-12-07T03:23:55;0.90;99.90
21861;DHT22;11095;48.066;8.540;2022-12-07T03:26:28;0.90;99.90
21861;DHT22;11095;48.066;8.540;2022-12-07T03:28:59;1.00;99.90
21861;DHT22;11095;48.066;8.540;2022-12-07T03:31:31;1.00;99.90
21861;DHT22;11095;48.066;8.540;2022-12-07T03:34:18;1.00;99.90
21861;DHT22;11095;48.066;8.540;2022-12-07T03:37:00;0.90;99.90
21861;DHT22;11095;48.066;8.540;2022-12-07T03:42:00;1.00;99.90
21861;DHT22;11095;48.066;8.540;2022-12-07T03:44:27;1.00;99.90
21861;DHT22;11095;48.066;8.540;2022-12-07T03:47:23;0.90;99.90
21861;DHT22;11095;48.066;8.540;2022-12-07T03:50:01;0.90;99.90
21861;DHT22;11095;48.066;8.540;2022-12-07T03:52:47;0.90;99.90
21861;DHT22;11095;48.066;8.540;2022-12-07T03:55:25;1.00;99.90
21861;DHT22;11095;48.066;8.540;2022-12-07T03:57:56;1.00;99.90
21861;DHT22;11095;48.066;8.540;2022-12-07T04:00:22;0.90;99.90
21861;DHT22;11095;48.066;8.540;2022-12-07T04:02:52;0.90;99.90
21861;DHT22;11095;48.066;8.540;2022-12-07T04:05:18;0.90;99.90
21861;DHT22;11095;48.066;8.540;2022-12-07T04:07:44;1.00;99.90
21861;DHT22;11095;48.066;8.540;2022-12-07T04:10:10;1.00;99.90
21861;DHT22;11095;48.066;8.540;2022-12-07T04:12:36;0.90;99.90
21861;DHT22;11095;48.066;8.540;2022-12-07T04:15:01;0.90;99.90
21861;DHT22;11095;48.066;8.540;2022-12-07T04:17:27;1.00;99.90
21861;DHT22;11095;48.066;8.540;2022-12-07T04:19:53;1.00;99.90
21861;DHT22;11095;48.066;8.540;2022-12-07T04:22:18;1.00;99.90
21861;DHT22;11095;48.066;8.540;2022-12-07T04:24:44;1.10;99.90
21861;DHT22;11095;48.066;8.540;2022-12-07T04:27:09;1.10;99.90
21861;DHT22;11095;48.066;8.540;2022-12-07T04:29:35;1.10;99.90
21861;DHT22;11095;48.066;8.540;2022-12-07T04:32:01;1.20;99.90
21861;DHT22;11095;48.066;8.540;2022-12-07T04:34:26;1.20;99.90
21861;DHT22;11095;48.066;8.540;2022-12-07T04:36:52;1.20;99.90
21861;DHT22;11095;48.066;8.540;2022-12-07T04:39:38;1.20;99.90
21861;DHT22;11095;48.066;8.540;2022-12-07T04:42:04;1.10;99.90
21861;DHT22;11095;48.066;8.540;2022-12-07T04:44:30;1.10;99.90
21861;DHT22;11095;48.066;8.540;2022-12-07T04:46:55;1.10;99.90
21861;DHT22;11095;48.066;8.540;2022-12-07T04:49:23;1.00;99.90
21861;DHT22;11095;48.066;8.540;2022-12-07T04:51:50;0.90;99.90
21861;DHT22;11095;48.066;8.540;2022-12-07T04:54:16;0.90;99.90
21861;DHT22;11095;48.066;8.540;2022-12-07T04:56:42;0.90;99.90
21861;DHT22;11095;48.066;8.540;2022-12-07T04:59:10;0.90;99.90
21861;DHT22;11095;48.066;8.540;2022-12-07T05:01:36;0.90;99.90
21861;DHT22;11095;48.066;8.540;2022-12-07T05:04:02;0.90;99.90
21861;DHT22;11095;48.066;8.540;2022-12-07T05:06:28;0.90;99.90
21861;DHT22;11095;48.066;8.540;2022-12-07T05:08:54;0.80;99.90
21861;DHT22;11095;48.066;8.540;2022-12-07T05:11:20;0.80;99.90
21861;DHT22;11095;48.066;8.540;2022-12-07T05:16:31;0.80;99.90
21861;DHT22;11095;48.066;8.540;2022-12-07T05:18:57;0.80;99.90
21861;DHT22;11095;48.066;8.540;2022-12-07T05:21:23;0.70;99.90
21861;DHT22;11095;48.066;8.540;2022-12-07T05:23:48;0.70;99.90
21861;DHT22;11095;48.066;8.540;2022-12-07T05:26:14;0.70;99.90
21861;DHT22;11095;48.066;8.540;2022-12-07T05:28:40;0.80;99.90
21861;DHT22;11095;48.066;8.540;2022-12-07T05:31:06;0.70;99.90
21861;DHT22;11095;48.066;8.540;2022-12-07T05:33:31;0.70;99.90
21861;DHT22;11095;48.066;8.540;2022-12-07T05:35:57;0.70;99.90
21861;DHT22;11095;48.066;8.540;2022-12-07T05:38:23;0.70;99.90
21861;DHT22;11095;48.066;8.540;2022-12-07T05:40:48;0.60;99.90
21861;DHT22;11095;48.066;8.540;2022-12-07T05:43:14;0.60;99.90
21861;DHT22;11095;48.066;8.540;2022-12-07T05:45:40;0.60;99.90
21861;DHT22;11095;48.066;8.540;2022-12-07T05:48:05;0.60;99.90
21861;DHT22;11095;48.066;8.540;2022-12-07T05:50:31;0.60;99.90
21861;DHT22;11095;48.066;8.540;2022-12-07T05:52:57;0.60;99.90
21861;DHT22;11095;48.066;8.540;2022-12-07T05:55:22;0.60;99.90
21861;DHT22;11095;48.066;8.540;2022-12-07T05:57:48;0.60;99.90
21861;DHT22;11095;48.066;8.540;2022-12-07T06:00:32;0.50;99.90
21861;DHT22;11095;48.066;8.540;2022-12-07T06:02:58;0.50;99.90
21861;DHT22;11095;48.066;8.540;2022-12-07T06:05:24;0.50;99.90
21861;DHT22;11095;48.066;8.540;2022-12-07T06:07:49;0.50;99.90
21861;DHT22;11095;48.066;8.540;2022-12-07T06:10:15;0.50;99.90
21861;DHT22;11095;48.066;8.540;2022-12-07T06:12:41;0.50;99.90
21861;DHT22;11095;48.066;8.540;2022-12-07T06:15:09;0.50;99.90
21861;DHT22;11095;48.066;8.540;2022-12-07T06:17:35;0.40;99.90
21861;DHT22;11095;48.066;8.540;2022-12-07T06:20:01;0.40;99.90
21861;DHT22;11095;48.066;8.540;2022-12-07T06:22:27;0.40;99.90
21861;DHT22;11095;48.066;8.540;2022-12-07T06:24:53;0.40;99.90
21861;DHT22;11095;48.066;8.540;2022-12-07T06:27:19;0.40;99.90
21861;DHT22;11095;48.066;8.540;2022-12-07T06:29:45;0.40;99.90
21861;DHT22;11095;48.066;8.540;2022-12-07T06:32:10;0.40;99.90
21861;DHT22;11095;48.066;8.540;2022-12-07T06:34:37;0.30;99.90
21861;DHT22;11095;48.066;8.540;2022-12-07T06:37:03;0.30;99.90
21861;DHT22;11095;48.066;8.540;2022-12-07T06:39:28;0.30;99.90
21861;DHT22;11095;48.066;8.540;2022-12-07T06:41:55;0.30;99.90
21861;DHT22;11095;48.066;8.540;2022-12-07T06:44:21;0.20;99.90
21861;DHT22;11095;48.066;8.540;2022-12-07T06:46:48;0.20;99.90
21861;DHT22;11095;48.066;8.540;2022-12-07T06:49:13;0.10;99.90
21861;DHT22;11095;48.066;8.540;2022-12-07T06:51:39;0.00;99.90
21861;DHT22;11095;48.066;8.540;2022-12-07T06:54:10;0.00;99.90
21861;DHT22;11095;48.066;8.540;2022-12-07T06:56:37;-0.10;99.90
21861;DHT22;11095;48.066;8.540;2022-12-07T06:59:03;-0.20;99.90
21861;DHT22;11095;48.066;8.540;2022-12-07T07:01:30;-0.20;99.90
21861;DHT22;11095;48.066;8.540;2022-12-07T07:03:56;-0.30;99.90
21861;DHT22;11095;48.066;8.540;2022-12-07T07:06:22;-0.30;99.90
21861;DHT22;11095;48.066;8.540;2022-12-07T07:08:47;-0.40;99.90
21861;DHT22;11095;48.066;8.540;2022-12-07T07:11:13;-0.50;99.90
21861;DHT22;11095;48.066;8.540;2022-12-07T07:13:38;-0.50;99.90
21861;DHT22;11095;48.066;8.540;2022-12-07T07:16:05;-0.50;99.90
21861;DHT22;11095;48.066;8.540;2022-12-07T07:18:31;-0.60;99.90
21861;DHT22;11095;48.066;8.540;2022-12-07T07:20:56;-0.60;99.90
21861;DHT22;11095;48.066;8.540;2022-12-07T07:23:22;-0.70;99.90
21861;DHT22;11095;48.066;8.540;2022-12-07T07:25:48;-0.60;99.90
21861;DHT22;11095;48.066;8.540;2022-12-07T07:28:14;-0.60;99.90
21861;DHT22;11095;48.066;8.540;2022-12-07T07:30:41;-0.60;99.90
21861;DHT22;11095;48.066;8.540;2022-12-07T07:33:06;-0.60;99.90
21861;DHT22;11095;48.066;8.540;2022-12-07T07:35:33;-0.70;99.90
21861;DHT22;11095;48.066;8.540;2022-12-07T07:37:59;-0.60;99.90
21861;DHT22;11095;48.066;8.540;2022-12-07T07:40:26;-0.60;99.90
21861;DHT22;11095;48.066;8.540;2022-12-07T07:42:53;-0.50;99.90
21861;DHT22;11095;48.066;8.540;2022-12-07T07:45:23;-0.50;99.90
21861;DHT22;11095;48.066;8.540;2022-12-07T07:47:48;-0.10;99.90
21861;DHT22;11095;48.066;8.540;2022-12-07T07:50:14;0.20;99.90
21861;DHT22;11095;48.066;8.540;2022-12-07T07:52:41;0.50;99.90
21861;DHT22;11095;48.066;8.540;2022-12-07T07:55:07;0.80;99.90
21861;DHT22;11095;48.066;8.540;2022-12-07T07:57:34;1.40;99.90
21861;DHT22;11095;48.066;8.540;2022-12-07T08:00:01;2.40;99.90
21861;DHT22;11095;48.066;8.540;2022-12-07T08:02:28;3.70;99.90
21861;DHT22;11095;48.066;8.540;2022-12-07T08:04:55;4.40;99.90
21861;DHT22;11095;48.066;8.540;2022-12-07T08:07:20;4.70;99.90
21861;DHT22;11095;48.066;8.540;2022-12-07T08:09:46;5.30;99.90
21861;DHT22;11095;48.066;8.540;2022-12-07T08:12:12;6.10;99.90
21861;DHT22;11095;48.066;8.540;2022-12-07T08:14:37;6.80;99.90
21861;DHT22;11095;48.066;8.540;2022-12-07T08:17:03;7.00;99.90
21861;DHT22;11095;48.066;8.540;2022-12-07T08:19:29;7.20;99.90
21861;DHT22;11095;48.066;8.540;2022-12-07T08:21:55;7.80;99.90
21861;DHT22;11095;48.066;8.540;2022-12-07T08:24:21;8.30;99.90
21861;DHT22;11095;48.066;8.540;2022-12-07T08:26:47;8.90;99.90
21861;DHT22;11095;48.066;8.540;2022-12-07T08:29:13;9.10;99.90
21861;DHT22;11095;48.066;8.540;2022-12-07T08:31:39;8.90;99.90
21861;DHT22;11095;48.066;8.540;2022-12-07T08:34:05;9.30;99.90
21861;DHT22;11095;48.066;8.540;2022-12-07T08:36:30;9.70;99.90
21861;DHT22;11095;48.066;8.540;2022-12-07T08:38:56;9.30;99.90
21861;DHT22;11095;48.066;8.540;2022-12-07T08:41:22;8.30;99.90
21861;DHT22;11095;48.066;8.540;2022-12-07T08:43:47;7.80;99.90
21861;DHT22;11095;48.066;8.540;2022-12-07T08:46:24;7.70;99.90
21861;DHT22;11095;48.066;8.540;2022-12-07T08:48:57;7.20;99.90
21861;DHT22;11095;48.066;8.540;2022-12-07T08:51:24;6.90;99.90
21861;DHT22;11095;48.066;8.540;2022-12-07T08:53:51;7.40;99.90
21861;DHT22;11095;48.066;8.540;2022-12-07T08:56:18;7.70;99.90
21861;DHT22;11095;48.066;8.540;2022-12-07T08:58:44;8.20;99.90
21861;DHT22;11095;48.066;8.540;2022-12-07T09:01:10;8.80;99.90
21861;DHT22;11095;48.066;8.540;2022-12-07T09:03:35;9.60;99.90
21861;DHT22;11095;48.066;8.540;2022-12-07T09:06:01;8.90;99.90
21861;DHT22;11095;48.066;8.540;2022-12-07T09:08:33;8.20;99.90
21861;DHT22;11095;48.066;8.540;2022-12-07T09:10:59;8.10;99.90
21861;DHT22;11095;48.066;8.540;2022-12-07T09:13:25;6.90;99.90
21861;DHT22;11095;48.066;8.540;2022-12-07T09:15:51;6.00;99.90
21861;DHT22;11095;48.066;8.540;2022-12-07T09:18:16;5.60;99.90
21861;DHT22;11095;48.066;8.540;2022-12-07T09:20:42;5.30;99.90
21861;DHT22;11095;48.066;8.540;2022-12-07T09:23:08;4.40;99.90
21861;DHT22;11095;48.066;8.540;2022-12-07T09:25:34;4.70;99.90
21861;DHT22;11095;48.066;8.540;2022-12-07T09:28:00;4.40;99.90
21861;DHT22;11095;48.066;8.540;2022-12-07T09:30:27;4.00;99.90
21861;DHT22;11095;48.066;8.540;2022-12-07T09:32:54;4.20;99.90
21861;DHT22;11095;48.066;8.540;2022-12-07T09:35:20;4.90;99.90
21861;DHT22;11095;48.066;8.540;2022-12-07T09:37:46;6.10;99.90
21861;DHT22;11095;48.066;8.540;2022-12-07T09:40:12;7.40;99.90
21861;DHT22;11095;48.066;8.540;2022-12-07T09:42:42;8.60;99.90
21861;DHT22;11095;48.066;8.540;2022-12-07T09:45:27;9.30;99.90
21861;DHT22;11095;48.066;8.540;2022-12-07T09:47:54;9.00;99.90
21861;DHT22;11095;48.066;8.540;2022-12-07T09:50:23;9.60;99.90
21861;DHT22;11095;48.066;8.540;2022-12-07T09:52:50;9.60;99.90
21861;DHT22;11095;48.066;8.540;2022-12-07T09:55:28;9.20;99.90
21861;DHT22;11095;48.066;8.540;2022-12-07T09:57:55;8.60;99.90
21861;DHT22;11095;48.066;8.540;2022-12-07T10:00:23;9.10;99.90
21861;DHT22;11095;48.066;8.540;2022-12-07T10:02:56;9.60;99.90
21861;DHT22;11095;48.066;8.540;2022-12-07T10:05:35;9.20;99.90
21861;DHT22;11095;48.066;8.540;2022-12-07T10:08:04;9.30;99.90
21861;DHT22;11095;48.066;8.540;2022-12-07T10:10:32;9.10;99.90
21861;DHT22;11095;48.066;8.540;2022-12-07T10:13:01;9.60;99.90
21861;DHT22;11095;48.066;8.540;2022-12-07T10:21:22;10.40;99.90
21861;DHT22;11095;48.066;8.540;2022-12-07T10:24:03;9.80;99.90
21861;DHT22;11095;48.066;8.540;2022-12-07T10:29:01;9.40;99.90
21861;DHT22;11095;48.066;8.540;2022-12-07T10:31:27;9.60;99.90
21861;DHT22;11095;48.066;8.540;2022-12-07T10:33:55;9.90;99.90
21861;DHT22;11095;48.066;8.540;2022-12-07T10:36:42;8.00;99.90
21861;DHT22;11095;48.066;8.540;2022-12-07T10:39:41;7.20;99.90
21861;DHT22;11095;48.066;8.540;2022-12-07T10:44:40;8.00;99.90
21861;DHT22;11095;48.066;8.540;2022-12-07T10:50:14;4.60;99.90
21861;DHT22;11095;48.066;8.540;2022-12-07T10:55:20;3.40;99.90
21861;DHT22;11095;48.066;8.540;2022-12-07T11:01:10;3.00;99.90
21861;DHT22;11095;48.066;8.540;2022-12-07T11:03:51;2.80;99.90
21861;DHT22;11095;48.066;8.540;2022-12-07T11:06:39;2.90;99.90
21861;DHT22;11095;48.066;8.540;2022-12-07T11:11:53;2.70;99.90
21861;DHT22;11095;48.066;8.540;2022-12-07T11:17:03;2.60;99.90
21861;DHT22;11095;48.066;8.540;2022-12-07T11:19:46;2.80;99.90
21861;DHT22;11095;48.066;8.540;2022-12-07T11:25:23;3.30;99.90
21861;DHT22;11095;48.066;8.540;2022-12-07T11:38:41;3.50;99.90
21861;DHT22;11095;48.066;8.540;2022-12-07T11:41:09;3.60;99.90
21861;DHT22;11095;48.066;8.540;2022-12-07T11:43:54;3.60;99.90
21861;DHT22;11095;48.066;8.540;2022-12-07T11:46:25;3.80;99.90
21861;DHT22;11095;48.066;8.540;2022-12-07T11:51:51;3.70;99.90
21861;DHT22;11095;48.066;8.540;2022-12-07T11:54:23;3.60;99.90
21861;DHT22;11095;48.066;8.540;2022-12-07T11:56:53;3.50;99.90
21861;DHT22;11095;48.066;8.540;2022-12-07T11:59:27;3.30;99.90
21861;DHT22;11095;48.066;8.540;2022-12-07T12:02:14;3.20;99.90
21861;DHT22;11095;48.066;8.540;2022-12-07T12:07:32;3.40;99.90
21861;DHT22;11095;48.066;8.540;2022-12-07T12:10:13;3.30;99.90
21861;DHT22;11095;48.066;8.540;2022-12-07T12:12:59;3.10;99.90
21861;DHT22;11095;48.066;8.540;2022-12-07T12:15:38;3.00;99.90
21861;DHT22;11095;48.066;8.540;2022-12-07T12:18:22;2.90;99.90
21861;DHT22;11095;48.066;8.540;2022-12-07T12:26:08;3.10;99.90
21861;DHT22;11095;48.066;8.540;2022-12-07T12:29:02;3.20;99.90
21861;DHT22;11095;48.066;8.540;2022-12-07T12:31:39;3.40;99.90
21861;DHT22;11095;48.066;8.540;2022-12-07T12:42:53;3.90;99.90
21861;DHT22;11095;48.066;8.540;2022-12-07T12:45:27;3.50;99.90
21861;DHT22;11095;48.066;8.540;2022-12-07T12:50:47;3.20;99.90
21861;DHT22;11095;48.066;8.540;2022-12-07T12:53:24;3.30;99.90
21861;DHT22;11095;48.066;8.540;2022-12-07T12:56:10;3.30;99.90
21861;DHT22;11095;48.066;8.540;2022-12-07T12:58:42;3.20;99.90
21861;DHT22;11095;48.066;8.540;2022-12-07T13:01:40;3.10;99.90
21861;DHT22;11095;48.066;8.540;2022-12-07T13:04:38;2.90;99.90
21861;DHT22;11095;48.066;8.540;2022-12-07T13:07:10;2.80;99.90
21861;DHT22;11095;48.066;8.540;2022-12-07T13:09:36;2.70;99.90
21861;DHT22;11095;48.066;8.540;2022-12-07T13:12:13;2.70;99.90
21861;DHT22;11095;48.066;8.540;2022-12-07T13:14:58;2.60;99.90
21861;DHT22;11095;48.066;8.540;2022-12-07T13:20:06;2.60;99.90
21861;DHT22;11095;48.066;8.540;2022-12-07T13:27:46;2.60;99.90
21861;DHT22;11095;48.066;8.540;2022-12-07T13:30:19;2.70;99.90
21861;DHT22;11095;48.066;8.540;2022-12-07T13:32:57;2.80;99.90
21861;DHT22;11095;48.066;8.540;2022-12-07T13:37:55;2.80;99.90
21861;DHT22;11095;48.066;8.540;2022-12-07T13:40:22;2.90;99.90
21861;DHT22;11095;48.066;8.540;2022-12-07T13:43:01;2.80;99.90
21861;DHT22;11095;48.066;8.540;2022-12-07T13:45:29;2.80;99.90
21861;DHT22;11095;48.066;8.540;2022-12-07T13:50:55;2.90;99.90
21861;DHT22;11095;48.066;8.540;2022-12-07T13:53:21;2.90;99.90
21861;DHT22;11095;48.066;8.540;2022-12-07T13:55:47;2.90;99.90
21861;DHT22;11095;48.066;8.540;2022-12-07T13:58:13;2.90;99.90
21861;DHT22;11095;48.066;8.540;2022-12-07T14:00:40;2.80;99.90
21861;DHT22;11095;48.066;8.540;2022-12-07T14:05:43;2.70;99.90
21861;DHT22;11095;48.066;8.540;2022-12-07T14:13:37;2.60;99.90
21861;DHT22;11095;48.066;8.540;2022-12-07T14:18:50;2.80;99.90
21861;DHT22;11095;48.066;8.540;2022-12-07T14:21:21;2.80;99.90
21861;DHT22;11095;48.066;8.540;2022-12-07T14:24:22;2.90;99.90
21861;DHT22;11095;48.066;8.540;2022-12-07T14:26:49;2.90;99.90
21861;DHT22;11095;48.066;8.540;2022-12-07T14:31:48;2.90;99.90
21861;DHT22;11095;48.066;8.540;2022-12-07T14:34:14;2.90;99.90
21861;DHT22;11095;48.066;8.540;2022-12-07T14:36:40;2.90;99.90
21861;DHT22;11095;48.066;8.540;2022-12-07T14:39:05;2.80;99.90
21861;DHT22;11095;48.066;8.540;2022-12-07T14:41:31;2.60;99.90
21861;DHT22;11095;48.066;8.540;2022-12-07T14:44:15;2.60;99.90
21861;DHT22;11095;48.066;8.540;2022-12-07T14:46:41;2.40;99.90
21861;DHT22;11095;48.066;8.540;2022-12-07T14:49:07;2.30;99.90
21861;DHT22;11095;48.066;8.540;2022-12-07T14:51:33;2.20;99.90
21861;DHT22;11095;48.066;8.540;2022-12-07T14:54:01;2.20;99.90
21861;DHT22;11095;48.066;8.540;2022-12-07T14:56:27;2.00;99.90
21861;DHT22;11095;48.066;8.540;2022-12-07T14:58:53;1.90;99.90
21861;DHT22;11095;48.066;8.540;2022-12-07T15:01:19;1.90;99.90
21861;DHT22;11095;48.066;8.540;2022-12-07T15:03:44;1.80;99.90
21861;DHT22;11095;48.066;8.540;2022-12-07T15:06:14;1.80;99.90
21861;DHT22;11095;48.066;8.540;2022-12-07T15:08:40;1.70;99.90
21861;DHT22;11095;48.066;8.540;2022-12-07T15:11:05;1.70;99.90
21861;DHT22;11095;48.066;8.540;2022-12-07T15:13:31;1.60;99.90
21861;DHT22;11095;48.066;8.540;2022-12-07T15:16:19;1.60;99.90
21861;DHT22;11095;48.066;8.540;2022-12-07T15:18:45;1.50;99.90
21861;DHT22;11095;48.066;8.540;2022-12-07T15:21:14;1.40;99.90
21861;DHT22;11095;48.066;8.540;2022-12-07T15:23:40;1.30;99.90
21861;DHT22;11095;48.066;8.540;2022-12-07T15:26:06;1.30;99.90
21861;DHT22;11095;48.066;8.540;2022-12-07T15:28:33;1.20;99.90
21861;DHT22;11095;48.066;8.540;2022-12-07T15:30:59;1.20;99.90
21861;DHT22;11095;48.066;8.540;2022-12-07T15:33:24;1.20;99.90
21861;DHT22;11095;48.066;8.540;2022-12-07T15:35:50;1.10;99.90
21861;DHT22;11095;48.066;8.540;2022-12-07T15:38:16;1.10;99.90
21861;DHT22;11095;48.066;8.540;2022-12-07T15:40:41;1.10;99.90
21861;DHT22;11095;48.066;8.540;2022-12-07T15:43:09;1.00;99.90
21861;DHT22;11095;48.066;8.540;2022-12-07T15:45:54;1.00;99.90
21861;DHT22;11095;48.066;8.540;2022-12-07T15:48:20;1.00;99.90
21861;DHT22;11095;48.066;8.540;2022-12-07T15:50:46;1.00;99.90
21861;DHT22;11095;48.066;8.540;2022-12-07T15:53:11;0.90;99.90
21861;DHT22;11095;48.066;8.540;2022-12-07T15:55:40;0.90;99.90
21861;DHT22;11095;48.066;8.540;2022-12-07T15:58:06;0.90;99.90
21861;DHT22;11095;48.066;8.540;2022-12-07T16:00:32;0.90;99.90
21861;DHT22;11095;48.066;8.540;2022-12-07T16:02:58;0.90;99.90
21861;DHT22;11095;48.066;8.540;2022-12-07T16:05:23;0.90;99.90
21861;DHT22;11095;48.066;8.540;2022-12-07T16:07:49;0.80;99.90
21861;DHT22;11095;48.066;8.540;2022-12-07T16:10:15;0.90;99.90
21861;DHT22;11095;48.066;8.540;2022-12-07T16:12:41;0.80;99.90
21861;DHT22;11095;48.066;8.540;2022-12-07T16:15:08;0.80;99.90
21861;DHT22;11095;48.066;8.540;2022-12-07T16:17:33;0.80;99.90
21861;DHT22;11095;48.066;8.540;2022-12-07T16:19:59;0.80;99.90
21861;DHT22;11095;48.066;8.540;2022-12-07T16:22:24;0.80;99.90
21861;DHT22;11095;48.066;8.540;2022-12-07T16:24:50;0.80;99.90
21861;DHT22;11095;48.066;8.540;2022-12-07T16:27:16;0.80;99.90
21861;DHT22;11095;48.066;8.540;2022-12-07T16:29:41;0.80;99.90
21861;DHT22;11095;48.066;8.540;2022-12-07T16:32:07;0.80;99.90
21861;DHT22;11095;48.066;8.540;2022-12-07T16:34:33;0.80;99.90
21861;DHT22;11095;48.066;8.540;2022-12-07T16:36:58;0.80;99.90
21861;DHT22;11095;48.066;8.540;2022-12-07T16:39:24;0.80;99.90
21861;DHT22;11095;48.066;8.540;2022-12-07T16:41:50;0.70;99.90
21861;DHT22;11095;48.066;8.540;2022-12-07T16:44:15;0.70;99.90
21861;DHT22;11095;48.066;8.540;2022-12-07T16:46:42;0.70;99.90
21861;DHT22;11095;48.066;8.540;2022-12-07T16:49:14;0.70;99.90
21861;DHT22;11095;48.066;8.540;2022-12-07T16:51:41;0.70;99.90
21861;DHT22;11095;48.066;8.540;2022-12-07T16:54:12;0.70;99.90
21861;DHT22;11095;48.066;8.540;2022-12-07T16:56:39;0.70;99.90
21861;DHT22;11095;48.066;8.540;2022-12-07T16:59:04;0.60;99.90
21861;DHT22;11095;48.066;8.540;2022-12-07T17:01:30;0.50;99.90
21861;DHT22;11095;48.066;8.540;2022-12-07T17:03:57;0.50;99.90
21861;DHT22;11095;48.066;8.540;2022-12-07T17:06:25;0.40;99.90
21861;DHT22;11095;48.066;8.540;2022-12-07T17:08:51;0.40;99.90
21861;DHT22;11095;48.066;8.540;2022-12-07T17:11:18;0.40;99.90
21861;DHT22;11095;48.066;8.540;2022-12-07T17:13:44;0.40;99.90
21861;DHT22;11095;48.066;8.540;2022-12-07T17:16:29;0.30;99.90
21861;DHT22;11095;48.066;8.540;2022-12-07T17:18:55;0.30;99.90
21861;DHT22;11095;48.066;8.540;2022-12-07T17:21:21;0.30;99.90
21861;DHT22;11095;48.066;8.540;2022-12-07T17:23:48;0.30;99.90
21861;DHT22;11095;48.066;8.540;2022-12-07T17:26:19;0.30;99.90
21861;DHT22;11095;48.066;8.540;2022-12-07T17:28:46;0.30;99.90
21861;DHT22;11095;48.066;8.540;2022-12-07T17:31:13;0.20;99.90
21861;DHT22;11095;48.066;8.540;2022-12-07T17:33:39;0.20;99.90
21861;DHT22;11095;48.066;8.540;2022-12-07T17:36:16;0.10;99.90
21861;DHT22;11095;48.066;8.540;2022-12-07T17:38:43;0.10;99.90
21861;DHT22;11095;48.066;8.540;2022-12-07T17:43:35;0.00;99.90
21861;DHT22;11095;48.066;8.540;2022-12-07T17:46:06;-0.10;99.90
21861;DHT22;11095;48.066;8.540;2022-12-07T17:48:32;-0.10;99.90
21861;DHT22;11095;48.066;8.540;2022-12-07T17:51:01;-0.20;99.90
21861;DHT22;11095;48.066;8.540;2022-12-07T17:53:49;-0.20;99.90
21861;DHT22;11095;48.066;8.540;2022-12-07T17:56:16;-0.20;99.90